Time;durP1;ratioP1;P1;durP2;ratioP2;P2;SDS_P1;SDS_P2;PMS_P1;PMS_P2;Temp;Humidity;BMP_temperature;BMP_pressure;BME280_temperature;BME280_humidity;BME280_pressure;Samples;Min_cycle;Max_cycle;Signal;HPM_P1;HPM_P2
2021/09/21 00:01:09;;;;;;;8.00;5.90;;;14.80;62.20;;;;;;4955141;28;20425;-74
2021/09/21 00:03:35;;;;;;;7.20;5.77;;;14.80;62.30;;;;;;4955300;28;20440;-75
2021/09/21 00:06:03;;;;;;;8.33;5.57;;;14.80;62.30;;;;;;4955790;28;20969;-74
2021/09/21 00:08:29;;;;;;;6.93;5.63;;;14.80;62.50;;;;;;4955899;28;20500;-74
2021/09/21 00:10:58;;;;;;;5.80;4.83;;;14.80;62.20;;;;;;4955672;28;20532;-74
2021/09/21 00:13:24;;;;;;;7.90;5.47;;;14.80;62.00;;;;;;4952793;29;20836;-75
2021/09/21 00:15:50;;;;;;;5.93;4.90;;;14.70;61.80;;;;;;4948462;28;20469;-75
2021/09/21 00:18:16;;;;;;;5.13;4.63;;;14.70;61.70;;;;;;4935712;29;20428;-74
2021/09/21 00:20:42;;;;;;;6.63;5.10;;;14.70;61.70;;;;;;4935947;29;20416;-75
2021/09/21 00:23:08;;;;;;;6.70;4.83;;;14.70;62.30;;;;;;4918855;29;20492;-74
2021/09/21 00:25:34;;;;;;;8.00;5.77;;;14.70;62.70;;;;;;4940843;29;20974;-75
2021/09/21 00:28:00;;;;;;;6.97;5.10;;;14.70;63.10;;;;;;4955279;29;20397;-75
2021/09/21 00:30:27;;;;;;;6.60;5.47;;;14.70;63.40;;;;;;4953516;29;20173;-75
2021/09/21 00:33:03;;;;;;;6.90;5.20;;;14.60;63.40;;;;;;4953744;29;20428;-74
2021/09/21 00:35:30;;;;;;;6.50;5.30;;;14.60;63.60;;;;;;4954631;28;20200;-74
2021/09/21 00:37:56;;;;;;;9.60;5.43;;;14.60;63.60;;;;;;4954933;28;20425;-74
2021/09/21 00:40:21;;;;;;;5.87;5.27;;;14.60;63.20;;;;;;4953256;29;20427;-76
2021/09/21 00:42:47;;;;;;;6.53;5.40;;;14.60;63.00;;;;;;4954798;28;20173;-73
2021/09/21 00:45:19;;;;;;;5.50;5.00;;;14.60;62.90;;;;;;4963330;28;20536;-74
2021/09/21 00:47:45;;;;;;;7.43;5.13;;;14.60;62.80;;;;;;4973678;29;20197;-75
2021/09/21 00:50:11;;;;;;;7.30;6.03;;;14.60;63.10;;;;;;4967832;29;20907;-75
2021/09/21 00:52:37;;;;;;;8.37;4.90;;;14.60;63.50;;;;;;4961020;29;20177;-74
2021/09/21 00:55:03;;;;;;;7.50;5.33;;;14.60;63.90;;;;;;4954364;29;20461;-74
2021/09/21 00:57:31;;;;;;;6.23;5.53;;;14.60;64.20;;;;;;4955951;28;20303;-74
2021/09/21 00:59:57;;;;;;;8.00;6.67;;;14.60;64.50;;;;;;4954612;28;20425;-74
2021/09/21 01:02:23;;;;;;;8.73;5.67;;;14.60;64.70;;;;;;4954692;28;20409;-74
2021/09/21 01:04:50;;;;;;;8.93;5.40;;;14.60;64.90;;;;;;4953952;28;20973;-73
2021/09/21 01:07:15;;;;;;;9.10;5.57;;;14.60;65.00;;;;;;4954697;29;20268;-74
2021/09/21 01:09:43;;;;;;;8.40;6.20;;;14.60;65.30;;;;;;4954251;29;20496;-74
2021/09/21 01:12:09;;;;;;;8.60;6.17;;;14.60;65.30;;;;;;4954421;29;20189;-75
2021/09/21 01:14:34;;;;;;;9.60;5.17;;;14.60;65.30;;;;;;4951073;29;20539;-74
2021/09/21 01:17:00;;;;;;;6.93;5.07;;;14.60;65.20;;;;;;4953147;29;20551;-74
2021/09/21 01:19:26;;;;;;;7.60;5.90;;;14.60;65.30;;;;;;4954135;29;20174;-74
2021/09/21 01:21:52;;;;;;;5.87;5.10;;;14.60;65.10;;;;;;4953392;29;20179;-74
2021/09/21 01:24:20;;;;;;;6.07;5.47;;;14.60;65.30;;;;;;4954579;29;20281;-74
2021/09/21 01:26:46;;;;;;;6.13;5.53;;;14.60;65.20;;;;;;4952680;29;20179;-74
2021/09/21 01:29:12;;;;;;;5.83;4.80;;;14.50;65.40;;;;;;4952663;28;20455;-74
2021/09/21 01:31:41;;;;;;;5.70;5.10;;;14.50;65.50;;;;;;4953010;29;20436;-74
2021/09/21 01:34:08;;;;;;;7.73;5.43;;;14.50;65.60;;;;;;4953865;29;20448;-74
2021/09/21 01:36:34;;;;;;;5.43;4.93;;;14.50;65.40;;;;;;4953825;29;20462;-74
2021/09/21 01:39:00;;;;;;;9.07;5.67;;;14.50;65.30;;;;;;4954247;29;20432;-74
2021/09/21 01:41:26;;;;;;;6.40;5.10;;;14.50;65.20;;;;;;4952451;29;20421;-74
2021/09/21 01:43:52;;;;;;;6.50;5.03;;;14.40;65.20;;;;;;4954443;29;20254;-74
2021/09/21 01:46:20;;;;;;;7.07;5.03;;;14.40;65.20;;;;;;4952889;29;20174;-74
2021/09/21 01:48:46;;;;;;;5.83;4.90;;;14.40;65.30;;;;;;4953150;29;20422;-74
2021/09/21 01:51:19;;;;;;;9.13;4.90;;;14.40;65.10;;;;;;4954556;29;20432;-74
2021/09/21 01:58:54;;;;;;;7.13;5.63;;;14.40;65.40;;;;;;4938969;29;20632;-74
2021/09/21 02:01:25;;;;;;;6.53;5.20;;;14.40;65.30;;;;;;4952616;29;20500;-74
2021/09/21 02:03:54;;;;;;;6.80;4.60;;;14.30;65.20;;;;;;4952010;29;20375;-73
2021/09/21 02:06:24;;;;;;;6.27;5.10;;;14.40;65.50;;;;;;4952101;29;20927;-74
2021/09/21 02:08:49;;;;;;;6.30;4.83;;;14.30;65.30;;;;;;4951777;29;20412;-74
2021/09/21 02:11:15;;;;;;;7.90;5.33;;;14.30;65.50;;;;;;4952875;29;20425;-73
2021/09/21 02:13:41;;;;;;;7.30;5.03;;;14.20;65.70;;;;;;4951972;29;20208;-74
2021/09/21 02:16:07;;;;;;;8.57;5.00;;;14.20;65.80;;;;;;4953235;29;20232;-74
2021/09/21 02:18:33;;;;;;;5.73;5.13;;;14.30;66.00;;;;;;4951862;29;20631;-74
2021/09/21 02:20:59;;;;;;;5.60;4.83;;;14.20;66.00;;;;;;4952676;29;20421;-74
2021/09/21 02:23:24;;;;;;;7.30;5.10;;;14.20;66.20;;;;;;4952925;29;20803;-74
2021/09/21 02:25:50;;;;;;;5.90;5.30;;;14.20;66.20;;;;;;4951078;29;20212;-74
2021/09/21 02:28:16;;;;;;;6.83;4.70;;;14.20;66.30;;;;;;4953745;28;20165;-74
2021/09/21 02:30:42;;;;;;;6.60;4.70;;;14.20;66.40;;;;;;4959609;28;20200;-72
2021/09/21 02:33:08;;;;;;;7.20;5.07;;;14.10;66.20;;;;;;4960812;29;20931;-74
2021/09/21 02:35:34;;;;;;;6.57;5.27;;;14.10;66.60;;;;;;4954829;29;20187;-73
2021/09/21 02:38:00;;;;;;;5.80;4.80;;;14.00;67.00;;;;;;4951518;29;20447;-74
2021/09/21 02:40:30;;;;;;;7.20;4.27;;;14.00;67.20;;;;;;4952603;29;20428;-74
2021/09/21 02:42:56;;;;;;;6.77;4.53;;;14.00;67.20;;;;;;4953357;28;20232;-74
2021/09/21 02:45:22;;;;;;;5.73;4.43;;;14.00;68.10;;;;;;4962607;29;20460;-73
2021/09/21 02:47:48;;;;;;;8.80;4.37;;;14.00;67.30;;;;;;4961652;29;20421;-74
2021/09/21 02:50:13;;;;;;;6.83;4.73;;;14.00;67.30;;;;;;4960635;28;20197;-73
2021/09/21 02:52:39;;;;;;;4.00;3.60;;;14.00;67.30;;;;;;4949848;28;20181;-74
2021/09/21 02:55:06;;;;;;;6.43;5.20;;;14.00;67.30;;;;;;4950875;29;20260;-74
2021/09/21 02:57:33;;;;;;;5.00;4.50;;;14.00;67.40;;;;;;4952551;28;20225;-73
2021/09/21 03:00:00;;;;;;;10.40;4.97;;;14.00;67.50;;;;;;4952363;28;20840;-74
2021/09/21 03:02:26;;;;;;;8.77;5.60;;;14.00;67.50;;;;;;4952640;29;20428;-74
2021/09/21 03:04:58;;;;;;;6.00;5.27;;;14.00;67.50;;;;;;4952391;29;20433;-74
2021/09/21 03:07:35;;;;;;;6.57;4.70;;;14.00;67.50;;;;;;4952726;29;20436;-74
2021/09/21 03:10:18;;;;;;;7.27;5.20;;;14.00;67.50;;;;;;4952039;29;20910;-74
2021/09/21 03:13:03;;;;;;;4.13;3.60;;;13.90;67.40;;;;;;4952555;29;20492;-75
2021/09/21 03:18:13;;;;;;;6.10;4.07;;;13.90;67.80;;;;;;4952455;29;20496;-73
2021/09/21 03:20:38;;;;;;;7.37;4.60;;;13.90;67.80;;;;;;4952245;29;20416;-73
2021/09/21 03:23:04;;;;;;;6.20;4.40;;;13.90;67.80;;;;;;4952414;29;20201;-73
2021/09/21 03:25:30;;;;;;;6.07;4.30;;;13.90;67.50;;;;;;4952282;29;20199;-74
2021/09/21 03:27:55;;;;;;;4.60;4.00;;;13.90;67.40;;;;;;4951998;29;20182;-74
2021/09/21 03:30:21;;;;;;;6.97;3.83;;;13.90;67.20;;;;;;4952071;29;20231;-73
2021/09/21 03:32:47;;;;;;;9.13;4.50;;;13.90;67.20;;;;;;4951083;29;20540;-73
2021/09/21 03:35:12;;;;;;;4.20;3.80;;;13.90;67.00;;;;;;4946258;29;20668;-74
2021/09/21 03:37:38;;;;;;;7.73;4.50;;;13.90;67.00;;;;;;4933413;29;20201;-74
2021/09/21 03:40:09;;;;;;;4.17;3.77;;;13.90;66.80;;;;;;4931880;29;20632;-73
2021/09/21 03:42:41;;;;;;;7.97;4.20;;;13.90;66.40;;;;;;4933156;29;20228;-74
2021/09/21 03:45:07;;;;;;;5.83;4.20;;;13.90;66.30;;;;;;4936781;29;20473;-76
2021/09/21 03:47:33;;;;;;;5.53;4.40;;;13.90;66.40;;;;;;4950941;28;20169;-73
2021/09/21 03:49:59;;;;;;;6.17;5.13;;;13.90;66.30;;;;;;4950711;28;20931;-74
2021/09/21 03:52:25;;;;;;;5.43;3.93;;;13.80;66.10;;;;;;4952308;28;20252;-74
2021/09/21 03:54:50;;;;;;;6.53;3.73;;;13.80;66.10;;;;;;4953496;29;20205;-74
2021/09/21 03:57:16;;;;;;;6.37;4.20;;;13.80;66.20;;;;;;4955519;29;20189;-74
2021/09/21 03:59:41;;;;;;;4.40;3.67;;;13.70;66.40;;;;;;4955028;29;20177;-74
2021/09/21 04:02:07;;;;;;;4.83;3.70;;;13.60;66.60;;;;;;4954270;28;20174;-74
2021/09/21 04:04:33;;;;;;;5.13;3.40;;;13.60;66.80;;;;;;4963416;28;20247;-76
2021/09/21 04:06:58;;;;;;;6.07;4.60;;;13.50;66.80;;;;;;4971386;28;20181;-73
2021/09/21 04:09:24;;;;;;;5.37;4.17;;;13.50;66.90;;;;;;4959633;29;20195;-74
2021/09/21 04:11:49;;;;;;;8.30;4.20;;;13.50;67.00;;;;;;4956109;28;20281;-75
2021/09/21 04:14:15;;;;;;;6.63;4.00;;;13.60;67.10;;;;;;4954306;29;20631;-74
2021/09/21 04:16:41;;;;;;;5.67;3.80;;;13.60;67.10;;;;;;4955085;29;20204;-74
2021/09/21 04:19:07;;;;;;;6.33;3.90;;;13.60;67.10;;;;;;4954924;29;20176;-74
2021/09/21 04:21:32;;;;;;;5.70;4.20;;;13.60;67.00;;;;;;4953778;29;20184;-74
2021/09/21 04:23:58;;;;;;;7.87;5.67;;;13.60;67.00;;;;;;4955072;29;20225;-74
2021/09/21 04:26:23;;;;;;;5.47;4.20;;;13.60;67.00;;;;;;4955335;29;20208;-74
2021/09/21 04:28:49;;;;;;;5.43;3.30;;;13.50;66.90;;;;;;4955144;29;20670;-76
2021/09/21 04:31:24;;;;;;;7.10;4.83;;;13.50;67.00;;;;;;4953487;28;20252;-74
2021/09/21 04:33:52;;;;;;;5.97;4.33;;;13.50;67.10;;;;;;4953826;29;20439;-75
2021/09/21 04:36:19;;;;;;;8.57;4.60;;;13.50;67.10;;;;;;4954777;28;20543;-74
2021/09/21 04:38:45;;;;;;;5.43;4.13;;;13.40;67.90;;;;;;4953437;29;20428;-75
2021/09/21 04:41:10;;;;;;;5.10;3.77;;;13.40;67.10;;;;;;4953500;28;21040;-75
2021/09/21 04:43:37;;;;;;;7.27;5.30;;;13.40;67.20;;;;;;4954471;28;20875;-74
2021/09/21 04:46:06;;;;;;;6.93;4.17;;;13.40;67.30;;;;;;4956409;28;20419;-77
2021/09/21 04:48:32;;;;;;;8.00;4.00;;;13.40;67.50;;;;;;4959646;28;20409;-77
2021/09/21 04:50:58;;;;;;;6.43;3.60;;;13.40;67.50;;;;;;4956728;28;20455;-79
2021/09/21 04:53:23;;;;;;;6.50;3.83;;;13.40;67.60;;;;;;4928145;29;20177;-77
2021/09/21 04:55:49;;;;;;;8.63;3.77;;;13.40;67.40;;;;;;4959693;29;20190;-78
2021/09/21 04:58:15;;;;;;;5.30;3.50;;;13.40;67.10;;;;;;4961563;29;20216;-78
2021/09/21 05:00:41;;;;;;;7.40;4.23;;;13.40;67.80;;;;;;4961482;28;20173;-78
2021/09/21 05:03:06;;;;;;;4.97;4.03;;;13.40;66.80;;;;;;4969297;28;20672;-78
2021/09/21 05:05:32;;;;;;;5.20;3.70;;;13.40;66.50;;;;;;4977375;28;20617;-79
2021/09/21 05:07:59;;;;;;;4.13;3.33;;;13.30;66.10;;;;;;4969952;28;20432;-78
2021/09/21 05:10:26;;;;;;;5.10;3.40;;;13.30;65.90;;;;;;4966857;28;20185;-77
2021/09/21 05:12:51;;;;;;;3.97;3.00;;;13.30;65.50;;;;;;4976873;28;20436;-79
2021/09/21 05:15:17;;;;;;;4.87;4.10;;;13.30;65.00;;;;;;4966849;28;20461;-78
2021/09/21 05:17:43;;;;;;;5.80;3.90;;;13.30;64.90;;;;;;4967846;28;20468;-79
2021/09/21 05:20:09;;;;;;;6.03;4.20;;;13.30;64.60;;;;;;4957485;28;20496;-77
2021/09/21 05:22:35;;;;;;;4.93;4.20;;;13.20;64.30;;;;;;4942134;29;20229;-77
2021/09/21 05:25:01;;;;;;;8.83;5.43;;;13.20;64.30;;;;;;4957923;29;20425;-79
2021/09/21 05:27:26;;;;;;;8.70;4.40;;;13.20;64.20;;;;;;4942815;29;20182;-77
2021/09/21 05:29:52;;;;;;;5.30;4.07;;;13.20;63.60;;;;;;4958741;29;20697;-78
2021/09/21 05:32:18;;;;;;;8.80;5.30;;;13.20;63.40;;;;;;4963822;28;20643;-78
2021/09/21 05:34:43;;;;;;;10.50;4.70;;;13.10;62.90;;;;;;4976938;28;20275;-77
2021/09/21 05:37:09;;;;;;;8.23;4.90;;;13.10;62.80;;;;;;4979443;28;20705;-79
2021/09/21 05:39:35;;;;;;;9.10;4.00;;;13.10;62.70;;;;;;4975476;28;20171;-80
2021/09/21 05:42:00;;;;;;;8.90;5.10;;;13.10;62.50;;;;;;4962345;28;20642;-78
2021/09/21 05:44:26;;;;;;;3.60;2.87;;;13.00;62.30;;;;;;4965713;28;20193;-77
2021/09/21 05:46:52;;;;;;;5.80;3.23;;;13.00;62.30;;;;;;4956536;29;20193;-76
2021/09/21 05:49:17;;;;;;;3.83;3.30;;;13.00;62.50;;;;;;4958708;29;20508;-78
2021/09/21 05:51:43;;;;;;;4.60;3.53;;;12.90;62.50;;;;;;4957543;29;20259;-77
2021/09/21 05:54:10;;;;;;;10.53;3.27;;;12.90;62.30;;;;;;4977736;23;20213;-73
2021/09/21 05:56:36;;;;;;;6.30;3.60;;;12.90;62.10;;;;;;4945580;28;20212;-72
2021/09/21 05:59:02;;;;;;;6.17;4.57;;;12.90;62.10;;;;;;4934239;29;20430;-72
2021/09/21 06:01:30;;;;;;;4.43;3.40;;;12.90;62.00;;;;;;4934018;29;20172;-72
2021/09/21 06:03:56;;;;;;;8.73;3.90;;;12.90;61.60;;;;;;4940328;29;20448;-71
2021/09/21 06:06:22;;;;;;;11.77;3.87;;;12.90;61.80;;;;;;4957070;28;20424;-72
2021/09/21 06:08:48;;;;;;;7.57;4.03;;;12.90;61.90;;;;;;4956736;28;20455;-73
2021/09/21 06:11:20;;;;;;;7.70;4.23;;;12.90;62.10;;;;;;4956410;28;20779;-73
2021/09/21 06:13:47;;;;;;;8.33;2.90;;;12.90;62.40;;;;;;4955370;28;20948;-73
2021/09/21 06:16:14;;;;;;;7.20;4.40;;;12.80;62.10;;;;;;4954353;28;20460;-72
2021/09/21 06:18:40;;;;;;;6.50;3.70;;;12.80;62.00;;;;;;4961240;28;20417;-73
2021/09/21 06:21:05;;;;;;;4.90;3.70;;;12.80;61.80;;;;;;4958710;28;20424;-74
2021/09/21 06:23:31;;;;;;;5.77;3.90;;;12.90;62.00;;;;;;4954948;29;20180;-73
2021/09/21 06:25:57;;;;;;;5.73;3.40;;;12.90;62.00;;;;;;4954154;28;20161;-73
2021/09/21 06:28:22;;;;;;;6.60;4.23;;;12.90;62.10;;;;;;4954816;28;20162;-73
2021/09/21 06:30:48;;;;;;;6.50;3.80;;;13.00;62.00;;;;;;4953788;28;20174;-73
2021/09/21 06:33:13;;;;;;;5.63;3.67;;;13.00;62.10;;;;;;4953336;28;20180;-73
2021/09/21 06:35:39;;;;;;;9.80;4.50;;;13.00;62.00;;;;;;4955992;28;20193;-72
2021/09/21 06:38:05;;;;;;;9.77;4.10;;;13.10;61.80;;;;;;4953001;28;20603;-71
2021/09/21 06:40:30;;;;;;;12.23;4.53;;;13.20;61.70;;;;;;4952738;28;20671;-71
2021/09/21 06:42:56;;;;;;;6.00;3.77;;;13.20;61.40;;;;;;4952099;29;20749;-71
2021/09/21 06:45:22;;;;;;;6.10;4.40;;;13.30;61.00;;;;;;4954308;28;20196;-73
2021/09/21 06:47:48;;;;;;;4.60;3.60;;;13.30;61.00;;;;;;4956102;28;20551;-73
2021/09/21 06:50:14;;;;;;;8.70;4.20;;;13.30;60.00;;;;;;4952851;28;20189;-73
2021/09/21 06:52:40;;;;;;;4.90;3.80;;;13.40;60.80;;;;;;4936201;29;20432;-73
2021/09/21 06:55:08;;;;;;;3.90;2.60;;;13.50;60.10;;;;;;4952228;29;20220;-72
2021/09/21 06:57:34;;;;;;;7.33;4.03;;;13.70;59.50;;;;;;4953612;28;20599;-72
2021/09/21 07:00:00;;;;;;;8.10;3.43;;;13.80;59.10;;;;;;4953820;28;20484;-72
2021/09/21 07:02:26;;;;;;;4.30;3.90;;;14.00;58.60;;;;;;4952758;28;20489;-73
2021/09/21 07:04:51;;;;;;;5.40;3.30;;;14.00;58.20;;;;;;4953337;28;20449;-72
2021/09/21 07:07:18;;;;;;;7.87;3.40;;;14.10;57.00;;;;;;4952462;28;20167;-72
2021/09/21 07:09:43;;;;;;;6.80;3.37;;;14.20;56.90;;;;;;4939589;29;20927;-71
2021/09/21 07:12:09;;;;;;;7.83;3.20;;;14.20;56.60;;;;;;4928333;29;20486;-72
2021/09/21 07:14:35;;;;;;;4.13;2.80;;;14.30;56.80;;;;;;4940979;29;20644;-73
2021/09/21 07:17:00;;;;;;;7.30;3.10;;;14.40;56.90;;;;;;4933323;29;20195;-71
2021/09/21 07:19:26;;;;;;;4.10;3.23;;;14.50;57.20;;;;;;4924331;29;20190;-71
2021/09/21 07:21:52;;;;;;;4.87;3.07;;;14.60;56.40;;;;;;4931202;29;20209;-72
2021/09/21 07:24:18;;;;;;;4.87;3.53;;;14.70;55.20;;;;;;4924460;29;20191;-73
2021/09/21 07:26:50;;;;;;;3.70;2.50;;;14.70;54.50;;;;;;4927206;29;20269;-73
2021/09/21 07:29:17;;;;;;;4.87;3.70;;;14.80;55.20;;;;;;4916009;29;20454;-73
2021/09/21 07:31:43;;;;;;;5.53;3.43;;;14.90;55.20;;;;;;4931852;29;20431;-72
2021/09/21 07:34:10;;;;;;;6.17;3.60;;;15.30;55.50;;;;;;4937841;29;21042;-73
2021/09/21 07:36:36;;;;;;;4.37;3.10;;;15.90;54.60;;;;;;4935792;29;20557;-75
2021/09/21 07:39:03;;;;;;;3.73;2.80;;;16.10;53.00;;;;;;4918321;29;20479;-72
2021/09/21 07:41:28;;;;;;;48.07;34.17;;;16.20;52.40;;;;;;4933944;29;20203;-72
2021/09/21 07:43:54;;;;;;;3.97;2.97;;;16.30;53.00;;;;;;4938006;29;20504;-73
2021/09/21 07:46:20;;;;;;;4.73;4.10;;;16.50;50.70;;;;;;4926626;29;20186;-71
2021/09/21 07:48:46;;;;;;;5.67;4.20;;;16.50;51.40;;;;;;4920518;29;20181;-73
2021/09/21 07:51:11;;;;;;;8.40;4.00;;;16.80;51.80;;;;;;4917953;29;20181;-72
2021/09/21 07:53:37;;;;;;;6.10;3.23;;;17.10;50.30;;;;;;4917673;29;20695;-72
2021/09/21 07:56:03;;;;;;;5.30;3.20;;;17.90;49.90;;;;;;4920984;29;20689;-72
2021/09/21 07:58:29;;;;;;;4.93;3.23;;;19.10;48.00;;;;;;4938144;29;20167;-73
2021/09/21 08:00:55;;;;;;;5.63;2.90;;;20.50;46.50;;;;;;4929663;29;20946;-73
2021/09/21 08:03:22;;;;;;;8.13;3.73;;;22.30;44.40;;;;;;4917625;29;20246;-73
2021/09/21 08:05:48;;;;;;;7.47;3.30;;;24.20;41.20;;;;;;4917213;29;20438;-71
2021/09/21 08:08:16;;;;;;;10.67;8.70;;;26.10;38.20;;;;;;4917496;29;20403;-72
2021/09/21 08:10:42;;;;;;;3.73;2.97;;;27.90;34.60;;;;;;4916633;29;20458;-72
2021/09/21 08:13:09;;;;;;;5.47;3.80;;;29.00;31.70;;;;;;4918096;29;20418;-73
2021/09/21 08:15:34;;;;;;;4.23;3.60;;;30.10;30.10;;;;;;4923551;29;20454;-74
2021/09/21 08:18:01;;;;;;;4.80;4.33;;;31.10;29.20;;;;;;4933736;29;21038;-73
2021/09/21 08:20:28;;;;;;;3.67;3.37;;;31.70;28.00;;;;;;4934724;29;20682;-73
2021/09/21 08:22:54;;;;;;;5.80;3.43;;;31.90;27.40;;;;;;4920179;29;20526;-73
2021/09/21 08:25:20;;;;;;;4.93;3.43;;;32.10;26.80;;;;;;4916853;29;20430;-73
2021/09/21 08:27:50;;;;;;;4.93;3.87;;;32.10;26.20;;;;;;4926437;29;20422;-73
2021/09/21 08:30:17;;;;;;;9.20;7.53;;;31.90;26.90;;;;;;4936087;29;20488;-72
2021/09/21 08:32:43;;;;;;;4.47;4.07;;;32.60;26.30;;;;;;4926707;29;20182;-72
2021/09/21 08:35:10;;;;;;;4.43;2.90;;;32.90;25.90;;;;;;4932631;29;20482;-73
2021/09/21 08:37:35;;;;;;;4.13;2.70;;;32.80;25.50;;;;;;4932354;29;20880;-72
2021/09/21 08:40:01;;;;;;;6.13;4.23;;;32.70;25.70;;;;;;4934467;29;20301;-73
2021/09/21 08:42:27;;;;;;;6.53;5.03;;;33.00;25.50;;;;;;4936947;29;20177;-73
2021/09/21 08:44:53;;;;;;;3.57;2.80;;;33.40;25.30;;;;;;4936066;29;20212;-72
2021/09/21 08:47:20;;;;;;;3.40;3.00;;;34.00;24.80;;;;;;4936485;29;20528;-72
2021/09/21 08:49:46;;;;;;;6.73;2.90;;;34.20;23.80;;;;;;4935642;29;20193;-73
2021/09/21 08:52:12;;;;;;;6.83;3.20;;;34.30;23.90;;;;;;4935069;29;20433;-73
2021/09/21 08:54:38;;;;;;;3.93;3.03;;;33.90;23.90;;;;;;4934008;29;20464;-74
2021/09/21 08:57:03;;;;;;;3.93;2.67;;;33.90;24.20;;;;;;4918429;29;20209;-73
2021/09/21 08:59:34;;;;;;;3.50;2.80;;;34.10;23.20;;;;;;4919027;29;20193;-74
2021/09/21 09:02:05;;;;;;;3.80;3.10;;;34.50;22.90;;;;;;4921419;29;20246;-73
2021/09/21 09:04:32;;;;;;;4.90;3.00;;;34.70;22.80;;;;;;4901946;29;20477;-72
2021/09/21 09:06:58;;;;;;;11.33;10.30;;;34.60;22.80;;;;;;4931965;29;20439;-72
2021/09/21 09:09:27;;;;;;;4.70;3.13;;;34.40;23.00;;;;;;4935239;29;20413;-72
2021/09/21 09:11:58;;;;;;;3.50;3.17;;;34.30;22.50;;;;;;4935446;29;20963;-73
2021/09/21 09:14:35;;;;;;;3.30;2.70;;;34.10;23.20;;;;;;4936455;29;20962;-72
2021/09/21 09:17:03;;;;;;;3.77;3.23;;;34.50;22.20;;;;;;4934995;29;20503;-73
2021/09/21 09:19:40;;;;;;;4.17;3.87;;;34.50;22.30;;;;;;4936759;29;20512;-73
2021/09/21 09:22:11;;;;;;;3.87;3.10;;;34.70;22.00;;;;;;4936521;29;20436;-74
2021/09/21 09:24:49;;;;;;;4.93;2.80;;;34.70;21.70;;;;;;4947222;29;20449;-73
2021/09/21 09:27:17;;;;;;;3.07;2.77;;;34.60;22.00;;;;;;4939655;29;20488;-74
2021/09/21 09:29:57;;;;;;;4.30;3.40;;;34.10;22.40;;;;;;4934603;29;20911;-74
2021/09/21 09:32:23;;;;;;;4.60;3.63;;;34.10;22.40;;;;;;4934921;29;20408;-75
2021/09/21 09:34:48;;;;;;;4.23;3.20;;;33.60;22.20;;;;;;4917891;29;20449;-75
2021/09/21 09:37:14;;;;;;;4.03;3.00;;;33.00;22.80;;;;;;4934633;29;20612;-73
2021/09/21 09:39:41;;;;;;;3.30;2.90;;;32.70;23.50;;;;;;4933089;29;20548;-73
2021/09/21 09:42:08;;;;;;;7.50;2.37;;;32.70;23.50;;;;;;4932857;29;20447;-73
2021/09/21 09:44:35;;;;;;;2.60;2.33;;;32.50;23.10;;;;;;4935211;29;20499;-74
2021/09/21 09:47:06;;;;;;;3.93;3.10;;;32.10;23.10;;;;;;4934111;29;20779;-72
2021/09/21 09:49:35;;;;;;;5.50;2.23;;;31.80;23.50;;;;;;4933198;29;20471;-71
2021/09/21 09:52:06;;;;;;;3.73;2.10;;;31.70;23.60;;;;;;4933956;29;20437;-73
2021/09/21 09:54:32;;;;;;;3.77;2.13;;;32.20;23.50;;;;;;4933561;29;20460;-73
2021/09/21 09:56:58;;;;;;;3.00;2.40;;;32.40;23.40;;;;;;4931811;29;20454;-74
2021/09/21 09:59:28;;;;;;;7.77;2.57;;;32.50;23.00;;;;;;4915877;29;20506;-72
2021/09/21 10:01:53;;;;;;;4.17;2.87;;;32.30;22.90;;;;;;4915606;29;20497;-73
2021/09/21 10:04:19;;;;;;;2.60;2.27;;;31.30;24.00;;;;;;4917915;29;20874;-74
2021/09/21 10:06:45;;;;;;;4.20;2.67;;;31.50;24.10;;;;;;4945717;29;20201;-73
2021/09/21 10:09:11;;;;;;;4.20;2.60;;;31.70;24.00;;;;;;4916588;29;20182;-75
2021/09/21 10:11:38;;;;;;;3.33;2.70;;;31.60;24.20;;;;;;4928004;29;20413;-72
2021/09/21 10:14:05;;;;;;;3.73;2.60;;;31.90;23.80;;;;;;4931746;29;20568;-72
2021/09/21 10:16:32;;;;;;;3.30;2.30;;;32.10;23.80;;;;;;4932276;29;21069;-73
2021/09/21 10:18:59;;;;;;;10.70;6.90;;;32.30;23.30;;;;;;4934700;29;20409;-73
2021/09/21 10:21:37;;;;;;;3.80;3.30;;;32.30;23.40;;;;;;4932773;29;20811;-73
2021/09/21 10:24:07;;;;;;;8.23;7.43;;;32.50;23.50;;;;;;4932001;29;20449;-72
2021/09/21 10:26:40;;;;;;;21.13;19.07;;;32.70;22.90;;;;;;4933418;29;20852;-74
2021/09/21 10:29:07;;;;;;;4.60;2.60;;;32.50;23.20;;;;;;4933521;29;20868;-73
2021/09/21 10:31:34;;;;;;;5.10;2.83;;;31.70;23.50;;;;;;4924029;29;20430;-72
2021/09/21 10:34:15;;;;;;;3.10;2.80;;;30.90;24.30;;;;;;4933501;29;20450;-74
2021/09/21 10:36:53;;;;;;;3.80;2.50;;;29.40;25.40;;;;;;4932937;29;20471;-72
2021/09/21 10:39:22;;;;;;;10.80;3.13;;;27.90;26.40;;;;;;4932382;29;20923;-73
2021/09/21 10:41:59;;;;;;;2.40;2.13;;;26.60;27.60;;;;;;4923354;29;20429;-72
2021/09/21 10:44:25;;;;;;;2.73;2.30;;;25.70;29.00;;;;;;4914590;29;20461;-73
2021/09/21 10:47:01;;;;;;;2.70;1.97;;;25.10;29.50;;;;;;4913972;29;20628;-74
2021/09/21 10:49:36;;;;;;;7.87;3.40;;;24.60;30.20;;;;;;4919247;29;20431;-73
2021/09/21 10:52:05;;;;;;;5.90;2.10;;;24.10;30.90;;;;;;4922086;29;20425;-72
2021/09/21 10:54:52;;;;;;;5.63;5.03;;;23.60;31.30;;;;;;4932912;29;20456;-74
2021/09/21 10:57:40;;;;;;;3.73;2.47;;;23.20;31.40;;;;;;4916668;29;20802;-73
2021/09/21 11:00:08;;;;;;;2.80;2.20;;;22.40;32.00;;;;;;4915605;29;20833;-74
2021/09/21 11:02:38;;;;;;;6.10;2.73;;;21.80;33.00;;;;;;4918948;29;20414;-73
2021/09/21 11:05:07;;;;;;;4.17;2.77;;;21.50;33.60;;;;;;4927191;29;20460;-72
2021/09/21 11:07:35;;;;;;;2.43;1.67;;;21.20;33.90;;;;;;4933877;29;20425;-76
2021/09/21 11:10:01;;;;;;;5.50;2.33;;;21.10;34.70;;;;;;4935771;29;20426;-72
2021/09/21 11:12:26;;;;;;;6.30;2.43;;;21.20;34.60;;;;;;4920634;29;20418;-74
2021/09/21 11:14:54;;;;;;;5.67;3.00;;;21.50;34.70;;;;;;4919133;29;20217;-72
2021/09/21 11:17:23;;;;;;;4.10;2.40;;;21.70;34.40;;;;;;4916174;29;20205;-73
2021/09/21 11:19:56;;;;;;;2.70;1.97;;;21.60;33.80;;;;;;4922723;29;20856;-73
2021/09/21 11:22:29;;;;;;;4.97;2.50;;;21.30;34.00;;;;;;4918686;29;20822;-73
2021/09/21 11:25:10;;;;;;;7.00;3.03;;;21.30;34.70;;;;;;4923999;29;20464;-73
2021/09/21 11:27:39;;;;;;;5.03;4.10;;;21.40;34.30;;;;;;4937357;29;20765;-75
2021/09/21 11:30:13;;;;;;;3.50;2.67;;;21.30;34.60;;;;;;4937218;29;20834;-72
2021/09/21 11:32:40;;;;;;;8.10;2.73;;;21.40;34.70;;;;;;4937381;29;20417;-72
2021/09/21 11:35:10;;;;;;;2.63;2.43;;;21.60;34.70;;;;;;4937762;29;20802;-73
2021/09/21 11:37:37;;;;;;;6.03;2.23;;;21.70;34.40;;;;;;4939189;29;20473;-73
2021/09/21 11:40:04;;;;;;;7.57;2.70;;;21.80;34.40;;;;;;4930471;29;20663;-72
2021/09/21 11:42:33;;;;;;;5.93;2.70;;;21.90;33.80;;;;;;4934293;29;20510;-72
2021/09/21 11:45:01;;;;;;;3.90;2.27;;;21.90;34.30;;;;;;4936386;29;20465;-72
2021/09/21 11:47:39;;;;;;;3.03;2.07;;;22.00;34.30;;;;;;4936360;29;20437;-72
2021/09/21 11:50:20;;;;;;;3.43;2.13;;;22.10;34.10;;;;;;4936022;29;20468;-74
2021/09/21 11:52:49;;;;;;;3.50;2.07;;;22.10;33.50;;;;;;4935985;29;20445;-74
2021/09/21 11:55:21;;;;;;;3.87;2.17;;;22.00;33.60;;;;;;4936187;29;20835;-73
2021/09/21 11:57:49;;;;;;;2.03;1.53;;;21.80;34.30;;;;;;4937041;29;20460;-72
2021/09/21 12:00:35;;;;;;;3.40;1.90;;;21.50;34.10;;;;;;4932195;29;20441;-74
2021/09/21 12:03:08;;;;;;;3.30;2.30;;;21.10;34.50;;;;;;4922952;29;20550;-74
2021/09/21 12:05:36;;;;;;;2.73;2.30;;;20.90;35.20;;;;;;4917437;29;20808;-75
2021/09/21 12:08:13;;;;;;;2.67;2.13;;;20.90;35.90;;;;;;4918433;29;20470;-74
2021/09/21 12:10:43;;;;;;;3.07;2.00;;;20.90;35.70;;;;;;4924961;29;20450;-73
2021/09/21 12:13:18;;;;;;;5.80;2.27;;;20.90;36.20;;;;;;4937689;29;20761;-74
2021/09/21 12:15:48;;;;;;;4.73;2.20;;;20.80;36.10;;;;;;4938374;29;20831;-74
2021/09/21 12:18:20;;;;;;;3.00;1.93;;;20.70;36.10;;;;;;4934107;29;20893;-73
2021/09/21 12:20:57;;;;;;;2.20;1.80;;;20.60;36.30;;;;;;4934347;29;20467;-73
2021/09/21 12:23:26;;;;;;;2.80;1.80;;;20.60;36.50;;;;;;4925615;29;20549;-73
2021/09/21 12:25:53;;;;;;;3.40;2.10;;;20.70;36.10;;;;;;4929898;29;20573;-74
2021/09/21 12:28:27;;;;;;;3.83;2.13;;;20.70;36.20;;;;;;4931099;29;20437;-73
2021/09/21 12:30:54;;;;;;;3.57;2.57;;;20.80;36.50;;;;;;4919558;29;20456;-73
2021/09/21 12:33:20;;;;;;;4.73;2.20;;;20.90;36.40;;;;;;4928762;29;20438;-73
2021/09/21 12:35:49;;;;;;;7.67;2.70;;;20.90;36.50;;;;;;4915087;29;20438;-73
2021/09/21 12:38:21;;;;;;;2.70;2.00;;;21.00;36.80;;;;;;4918936;29;20217;-73
2021/09/21 12:40:58;;;;;;;2.50;2.13;;;21.00;36.40;;;;;;4915352;29;20485;-72
2021/09/21 12:43:26;;;;;;;2.90;2.10;;;21.00;36.10;;;;;;4915944;29;20429;-73
2021/09/21 12:45:54;;;;;;;2.43;1.80;;;21.00;36.30;;;;;;4925765;29;20499;-73
2021/09/21 12:48:32;;;;;;;3.53;1.97;;;21.00;36.40;;;;;;4915589;29;21142;-72
2021/09/21 12:51:00;;;;;;;3.00;2.60;;;20.90;36.60;;;;;;4930476;29;20432;-72
2021/09/21 12:53:27;;;;;;;3.20;2.53;;;20.80;36.90;;;;;;4930608;29;20970;-73
2021/09/21 12:56:11;;;;;;;3.20;2.40;;;20.80;36.80;;;;;;4915753;29;20828;-73